Clara — V2CC9 — position and weather

sailwx.info

Track history (hours):
 
Tides and Currents Weather Stations Pressure Air Temp Water Temp Dewpoint Dewpoint Depression Visibility Wind Speed Wind Dir Waves Ship Positions

Clara

Last reported at 2014-Jul-22 03:30 UTC. Time now 2014-Jul-23 03:40 UTC.
Position N 46°28' W 003°49'.

Length 108 m; draft 4.1 m.

Type: Cargo ship. MMSI: 304983000.

Date/timePositionNaut miles runAvg speedWind from/ knotsBaromVisibWave heightAir tempDewpointWater temp
2014-Jul-22 03:30N 46°28' W 003°49'3411.5
2014-Jul-22 00:33N 46°47' W 003°08'  
2014-Jul-18 16:20N 43°56' W 003°04'3 3.3
2014-Jul-18 15:33N 43°55' W 003°07'7 6.8
2014-Jul-18 14:33N 43°48' W 003°07'8 8.5
2014-Jul-18 13:33N 43°39' W 003°07'9 8.5
2014-Jul-18 12:34N 43°31' W 003°08'8 8.2
2014-Jul-18 11:33N 43°23' W 003°08'0 0.1
2014-Jul-18 10:32N 43°23' W 003°08'0 0.0
2014-Jul-18 09:32N 43°23' W 003°08'0 0.0
2014-Jul-18 08:32N 43°23' W 003°08'0 0.0
2014-Jul-18 07:29N 43°23' W 003°08'0 0.0
2014-Jul-18 06:32N 43°23' W 003°08'0 0.0
2014-Jul-18 05:32N 43°23' W 003°08'0 0.0
2014-Jul-18 04:32N 43°23' W 003°08'0 0.0
2014-Jul-18 03:32N 43°23' W 003°08'0 0.0
2014-Jul-18 02:32N 43°23' W 003°08'0 0.0
2014-Jul-18 01:29N 43°23' W 003°08'0 0.0
2014-Jul-18 00:32N 43°23' W 003°08'0 0.0
2014-Jul-17 23:32N 43°23' W 003°08'0 0.0
2014-Jul-17 22:32N 43°23' W 003°08'0 0.1
2014-Jul-17 21:32N 43°23' W 003°08'0 0.0
2014-Jul-17 20:29N 43°23' W 003°08'0 0.0
2014-Jul-17 19:32N 43°23' W 003°08'0 0.0
2014-Jul-17 18:32N 43°23' W 003°08'3 3.4
2014-Jul-17 17:33N 43°22' W 003°04'2 1.9
2014-Jul-17 16:32N 43°21' W 003°02'0 0.0
2014-Jul-17 15:32N 43°21' W 003°02'0 0.0
2014-Jul-17 14:32N 43°21' W 003°02'0 0.0
2014-Jul-17 13:32N 43°21' W 003°02'0 0.0
2014-Jul-17 12:32N 43°21' W 003°02'0 0.0
2014-Jul-17 11:32N 43°21' W 003°02'0 0.0
2014-Jul-17 10:29N 43°21' W 003°02'0 0.0
2014-Jul-17 09:32N 43°21' W 003°02'0 0.0
2014-Jul-17 08:32N 43°21' W 003°02'0 0.0
2014-Jul-17 07:29N 43°21' W 003°02'0 0.0
2014-Jul-17 06:32N 43°21' W 003°02'0 0.0
2014-Jul-17 05:32N 43°21' W 003°02'0 0.0
2014-Jul-17 04:32N 43°21' W 003°02'0 0.0
2014-Jul-17 03:32N 43°21' W 003°02'0 0.0
2014-Jul-17 02:32N 43°21' W 003°02'0 0.0
2014-Jul-17 01:32N 43°21' W 003°02'0 0.0
2014-Jul-17 00:32N 43°21' W 003°02'0 0.0
2014-Jul-16 23:32N 43°21' W 003°02'0 0.0
2014-Jul-16 22:32N 43°21' W 003°02'0 0.0
2014-Jul-16 21:32N 43°21' W 003°02'0 0.0
2014-Jul-16 20:32N 43°21' W 003°02'0 0.0
2014-Jul-16 19:32N 43°21' W 003°02'0 0.0
2014-Jul-16 18:32N 43°21' W 003°02'0 0.0
2014-Jul-16 17:29N 43°21' W 003°02'0 0.0
2014-Jul-16 16:32N 43°21' W 003°02'0 0.0
2014-Jul-15 19:32N 43°21' W 003°02'0 0.0
2014-Jul-15 09:32N 43°21' W 003°02'0 0.0
2014-Jul-15 08:32N 43°21' W 003°02'0 0.0
2014-Jul-15 07:32N 43°21' W 003°02'0 0.0
2014-Jul-15 06:32N 43°21' W 003°02'0 0.0
2014-Jul-15 05:32N 43°21' W 003°02'0 0.0
2014-Jul-15 04:32N 43°21' W 003°02'0 0.0
2014-Jul-15 03:29N 43°21' W 003°02'0 0.0
2014-Jul-15 02:32N 43°21' W 003°02'0 0.0
2014-Jul-15 01:32N 43°21' W 003°02'0 0.0
2014-Jul-15 00:32N 43°21' W 003°02'0 0.0
2014-Jul-14 23:29N 43°21' W 003°02'0 0.0
2014-Jul-14 22:32N 43°21' W 003°02'0 0.0
2014-Jul-14 21:32N 43°21' W 003°02'0 0.0
2014-Jul-14 20:26N 43°21' W 003°02'0 0.0
2014-Jul-14 19:17N 43°21' W 003°02'0 0.0
2014-Jul-14 17:20N 43°21' W 003°02'0 0.0
2014-Jul-14 16:32N 43°21' W 003°02'0 0.0
2014-Jul-14 15:32N 43°21' W 003°02'0 0.0
2014-Jul-14 14:29N 43°21' W 003°02'0 0.0
2014-Jul-14 13:32N 43°21' W 003°02'0 0.0
2014-Jul-14 12:32N 43°21' W 003°02'0 0.0
2014-Jul-14 11:32N 43°21' W 003°02'0 0.0
2014-Jul-13 20:26N 43°21' W 003°02'0 0.0
2014-Jul-13 19:32N 43°21' W 003°02'0 0.0
2014-Jul-13 18:23N 43°21' W 003°02'0 0.0
2014-Jul-13 15:32N 43°21' W 003°02'0 0.0
2014-Jul-13 14:32N 43°21' W 003°02'0 0.0
2014-Jul-13 13:32N 43°21' W 003°02'1 0.7
2014-Jul-13 12:34N 43°21' W 003°02'8 7.6
2014-Jul-13 11:33N 43°27' W 003°08'8 8.4
2014-Jul-13 10:34N 43°35' W 003°13'8 8.2
2014-Jul-13 09:34N 43°42' W 003°18'8 8.2
2014-Jul-13 08:34N 43°50' W 003°23'8 8.3
2014-Jul-13 07:34N 43°57' W 003°28'10 8.4
2014-Jul-13 06:22N 44°06' W 003°35'  
Track history (hours):
 
Tides and Currents Weather Stations Pressure Air Temp Water Temp Dewpoint Dewpoint Depression Visibility Wind Speed Wind Dir Waves Ship Positions

Clara

Last reported at 2014-Jul-22 03:30 UTC. Time now 2014-Jul-23 03:40 UTC.
Position N 46°28' W 003°49'.

Length 108 m; draft 4.1 m.

Type: Cargo ship. MMSI: 304983000.

Date/timePositionNaut miles runAvg speedWind from/ knotsBaromVisibWave heightAir tempDewpointWater temp
2014-Jul-22 03:30N 46°28' W 003°49'3411.5
2014-Jul-22 00:33N 46°47' W 003°08'  
2014-Jul-18 16:20N 43°56' W 003°04'3 3.3
2014-Jul-18 15:33N 43°55' W 003°07'7 6.8
2014-Jul-18 14:33N 43°48' W 003°07'8 8.5
2014-Jul-18 13:33N 43°39' W 003°07'9 8.5
2014-Jul-18 12:34N 43°31' W 003°08'8 8.2
2014-Jul-18 11:33N 43°23' W 003°08'0 0.1
2014-Jul-18 10:32N 43°23' W 003°08'0 0.0
2014-Jul-18 09:32N 43°23' W 003°08'0 0.0
2014-Jul-18 08:32N 43°23' W 003°08'0 0.0
2014-Jul-18 07:29N 43°23' W 003°08'0 0.0
2014-Jul-18 06:32N 43°23' W 003°08'0 0.0
2014-Jul-18 05:32N 43°23' W 003°08'0 0.0
2014-Jul-18 04:32N 43°23' W 003°08'0 0.0
2014-Jul-18 03:32N 43°23' W 003°08'0 0.0
2014-Jul-18 02:32N 43°23' W 003°08'0 0.0
2014-Jul-18 01:29N 43°23' W 003°08'0 0.0
2014-Jul-18 00:32N 43°23' W 003°08'0 0.0
2014-Jul-17 23:32N 43°23' W 003°08'0 0.0
2014-Jul-17 22:32N 43°23' W 003°08'0 0.1
2014-Jul-17 21:32N 43°23' W 003°08'0 0.0
2014-Jul-17 20:29N 43°23' W 003°08'0 0.0
2014-Jul-17 19:32N 43°23' W 003°08'0 0.0
2014-Jul-17 18:32N 43°23' W 003°08'3 3.4
2014-Jul-17 17:33N 43°22' W 003°04'2 1.9
2014-Jul-17 16:32N 43°21' W 003°02'0 0.0
2014-Jul-17 15:32N 43°21' W 003°02'0 0.0
2014-Jul-17 14:32N 43°21' W 003°02'0 0.0
2014-Jul-17 13:32N 43°21' W 003°02'0 0.0
2014-Jul-17 12:32N 43°21' W 003°02'0 0.0
2014-Jul-17 11:32N 43°21' W 003°02'0 0.0
2014-Jul-17 10:29N 43°21' W 003°02'0 0.0
2014-Jul-17 09:32N 43°21' W 003°02'0 0.0
2014-Jul-17 08:32N 43°21' W 003°02'0 0.0
2014-Jul-17 07:29N 43°21' W 003°02'0 0.0
2014-Jul-17 06:32N 43°21' W 003°02'0 0.0
2014-Jul-17 05:32N 43°21' W 003°02'0 0.0
2014-Jul-17 04:32N 43°21' W 003°02'0 0.0
2014-Jul-17 03:32N 43°21' W 003°02'0 0.0
2014-Jul-17 02:32N 43°21' W 003°02'0 0.0
2014-Jul-17 01:32N 43°21' W 003°02'0 0.0
2014-Jul-17 00:32N 43°21' W 003°02'0 0.0
2014-Jul-16 23:32N 43°21' W 003°02'0 0.0
2014-Jul-16 22:32N 43°21' W 003°02'0 0.0
2014-Jul-16 21:32N 43°21' W 003°02'0 0.0
2014-Jul-16 20:32N 43°21' W 003°02'0 0.0
2014-Jul-16 19:32N 43°21' W 003°02'0 0.0
2014-Jul-16 18:32N 43°21' W 003°02'0 0.0
2014-Jul-16 17:29N 43°21' W 003°02'0 0.0
2014-Jul-16 16:32N 43°21' W 003°02'0 0.0
2014-Jul-15 19:32N 43°21' W 003°02'0 0.0
2014-Jul-15 09:32N 43°21' W 003°02'0 0.0
2014-Jul-15 08:32N 43°21' W 003°02'0 0.0
2014-Jul-15 07:32N 43°21' W 003°02'0 0.0
2014-Jul-15 06:32N 43°21' W 003°02'0 0.0
2014-Jul-15 05:32N 43°21' W 003°02'0 0.0
2014-Jul-15 04:32N 43°21' W 003°02'0 0.0
2014-Jul-15 03:29N 43°21' W 003°02'0 0.0
2014-Jul-15 02:32N 43°21' W 003°02'0 0.0
2014-Jul-15 01:32N 43°21' W 003°02'0 0.0
2014-Jul-15 00:32N 43°21' W 003°02'0 0.0
2014-Jul-14 23:29N 43°21' W 003°02'0 0.0
2014-Jul-14 22:32N 43°21' W 003°02'0 0.0
2014-Jul-14 21:32N 43°21' W 003°02'0 0.0
2014-Jul-14 20:26N 43°21' W 003°02'0 0.0
2014-Jul-14 19:17N 43°21' W 003°02'0 0.0
2014-Jul-14 17:20N 43°21' W 003°02'0 0.0
2014-Jul-14 16:32N 43°21' W 003°02'0 0.0
2014-Jul-14 15:32N 43°21' W 003°02'0 0.0
2014-Jul-14 14:29N 43°21' W 003°02'0 0.0
2014-Jul-14 13:32N 43°21' W 003°02'0 0.0
2014-Jul-14 12:32N 43°21' W 003°02'0 0.0
2014-Jul-14 11:32N 43°21' W 003°02'0 0.0
2014-Jul-13 20:26N 43°21' W 003°02'0 0.0
2014-Jul-13 19:32N 43°21' W 003°02'0 0.0
2014-Jul-13 18:23N 43°21' W 003°02'0 0.0
2014-Jul-13 15:32N 43°21' W 003°02'0 0.0
2014-Jul-13 14:32N 43°21' W 003°02'0 0.0
2014-Jul-13 13:32N 43°21' W 003°02'1 0.7
2014-Jul-13 12:34N 43°21' W 003°02'8 7.6
2014-Jul-13 11:33N 43°27' W 003°08'8 8.4
2014-Jul-13 10:34N 43°35' W 003°13'8 8.2
2014-Jul-13 09:34N 43°42' W 003°18'8 8.2
2014-Jul-13 08:34N 43°50' W 003°23'8 8.3
2014-Jul-13 07:34N 43°57' W 003°28'10 8.4
2014-Jul-13 06:22N 44°06' W 003°35'  

Dump ship's entire track history